Time;durP1;ratioP1;P1;durP2;ratioP2;P2;SDS_P1;SDS_P2;PMS_P1;PMS_P2;Temp;Humidity;BMP_temperature;BMP_pressure;BME280_temperature;BME280_humidity;BME280_pressure;Samples;Min_cycle;Max_cycle;Signal;HPM_P1;HPM_P2
2023/04/24 00:01:10;;;;;;;;;;;;;;;11.42;nan;99412.69;5039620;28;19940;-80
2023/04/24 00:03:36;;;;;;;;;;;;;;;11.41;nan;99403.91;5040066;28;20419;-82
2023/04/24 00:06:02;;;;;;;;;;;;;;;11.39;nan;99405.09;5025059;28;19921;-80
2023/04/24 00:08:27;;;;;;;;;;;;;;;11.43;nan;99398.44;5026365;28;19928;-80
2023/04/24 00:10:54;;;;;;;;;;;;;;;11.43;nan;99395.78;5044736;28;20566;-80
2023/04/24 00:13:19;;;;;;;;;;;;;;;11.41;nan;99395.16;5043416;28;19921;-80
2023/04/24 00:15:45;;;;;;;;;;;;;;;11.40;nan;99385.59;5030530;28;19942;-81
2023/04/24 00:18:10;;;;;;;;;;;;;;;11.42;nan;99384.38;5025677;28;19952;-80
2023/04/24 00:20:35;;;;;;;;;;;;;;;11.42;nan;99386.22;5047725;28;19996;-83
2023/04/24 00:23:01;;;;;;;;;;;;;;;11.39;nan;99387.41;5013462;28;19916;-80
2023/04/24 00:25:26;;;;;;;;;;;;;;;11.41;nan;99392.50;5045349;28;19924;-80
2023/04/24 00:27:51;;;;;;;;;;;;;;;11.41;nan;99393.31;5033151;28;19956;-81
2023/04/24 00:30:16;;;;;;;;;;;;;;;11.44;nan;99389.47;5028894;28;19978;-81
2023/04/24 00:32:43;;;;;;;;;;;;;;;11.46;nan;99390.13;5047567;28;19932;-81
2023/04/24 00:35:08;;;;;;;;;;;;;;;11.45;nan;99396.44;5027098;28;19921;-80
2023/04/24 00:37:33;;;;;;;;;;;;;;;11.43;nan;99386.00;5010896;28;19944;-82
2023/04/24 00:39:58;;;;;;;;;;;;;;;11.42;nan;99379.09;5022909;28;19947;-80
2023/04/24 00:42:23;;;;;;;;;;;;;;;11.39;nan;99381.28;5020870;28;20028;-81
2023/04/24 00:44:49;;;;;;;;;;;;;;;11.37;nan;99375.34;5041857;28;20266;-81
2023/04/24 00:47:14;;;;;;;;;;;;;;;11.40;nan;99377.66;5038873;28;19925;-81
2023/04/24 00:49:40;;;;;;;;;;;;;;;11.39;nan;99371.53;5029162;28;19920;-80
2023/04/24 00:52:08;;;;;;;;;;;;;;;11.40;nan;99377.66;5051954;28;19939;-80
2023/04/24 00:54:33;;;;;;;;;;;;;;;11.40;nan;99381.09;5028179;28;19971;-80
2023/04/24 00:57:00;;;;;;;;;;;;;;;11.40;nan;99383.75;5027985;28;19920;-80
2023/04/24 00:59:25;;;;;;;;;;;;;;;11.46;nan;99382.19;5035883;28;19944;-81
2023/04/24 01:01:51;;;;;;;;;;;;;;;11.44;nan;99390.31;5027459;28;19921;-81
2023/04/24 01:04:17;;;;;;;;;;;;;;;11.46;nan;99388.31;5052488;28;19955;-81
2023/04/24 01:06:43;;;;;;;;;;;;;;;11.49;nan;99395.06;5044013;28;19922;-81
2023/04/24 01:09:12;;;;;;;;;;;;;;;11.50;nan;99398.53;5047967;28;19921;-81
2023/04/24 01:11:37;;;;;;;;;;;;;;;11.53;nan;99398.97;5023413;28;19921;-81
2023/04/24 01:14:03;;;;;;;;;;;;;;;11.51;nan;99387.72;5016656;28;19925;-80
2023/04/24 01:16:28;;;;;;;;;;;;;;;11.55;nan;99389.00;5025047;28;19925;-81
2023/04/24 01:18:53;;;;;;;;;;;;;;;11.47;nan;99383.84;5014324;28;19978;-81
2023/04/24 01:21:20;;;;;;;;;;;;;;;11.52;nan;99381.44;5010524;28;19944;-81
2023/04/24 01:23:46;;;;;;;;;;;;;;;11.45;nan;99381.38;5010891;28;19974;-80
2023/04/24 01:26:12;;;;;;;;;;;;;;;11.45;nan;99375.25;5010074;28;19921;-81
2023/04/24 01:28:37;;;;;;;;;;;;;;;11.40;nan;99377.66;5019879;28;19929;-81
2023/04/24 01:31:05;;;;;;;;;;;;;;;11.41;nan;99385.38;5035064;28;19946;-81
2023/04/24 01:33:30;;;;;;;;;;;;;;;11.34;nan;99376.53;5019232;28;19925;-82
2023/04/24 01:35:56;;;;;;;;;;;;;;;11.34;nan;99373.88;5029341;28;19928;-82
2023/04/24 01:38:21;;;;;;;;;;;;;;;11.35;nan;99372.91;5011864;28;19929;-81
2023/04/24 01:40:46;;;;;;;;;;;;;;;11.32;nan;99375.94;5022711;28;19932;-81
2023/04/24 01:43:12;;;;;;;;;;;;;;;11.34;nan;99375.72;5011751;28;19921;-81
2023/04/24 01:45:37;;;;;;;;;;;;;;;11.33;nan;99372.25;5032207;28;20647;-80
2023/04/24 01:48:03;;;;;;;;;;;;;;;11.33;nan;99368.81;5018075;28;19928;-81
2023/04/24 01:50:28;;;;;;;;;;;;;;;11.35;nan;99364.97;5036300;28;20420;-82
2023/04/24 01:52:53;;;;;;;;;;;;;;;11.36;nan;99371.88;5014330;28;20019;-82
2023/04/24 01:55:18;;;;;;;;;;;;;;;11.37;nan;99365.59;5029164;28;19928;-81
2023/04/24 01:57:44;;;;;;;;;;;;;;;11.37;nan;99370.06;5032650;28;20781;-81
2023/04/24 02:00:11;;;;;;;;;;;;;;;11.39;nan;99368.88;5010777;28;19929;-81
2023/04/24 02:02:36;;;;;;;;;;;;;;;11.40;nan;99375.81;5029496;28;19960;-80
2023/04/24 02:05:02;;;;;;;;;;;;;;;11.38;nan;99361.13;5030402;28;19959;-81
2023/04/24 02:07:27;;;;;;;;;;;;;;;11.39;nan;99365.41;5030643;28;19932;-81
2023/04/24 02:09:53;;;;;;;;;;;;;;;11.37;nan;99364.75;5031580;28;20377;-80
2023/04/24 02:12:18;;;;;;;;;;;;;;;11.38;nan;99361.94;5007836;28;19925;-80
2023/04/24 02:14:43;;;;;;;;;;;;;;;11.38;nan;99361.13;5025580;28;19925;-81
2023/04/24 02:17:09;;;;;;;;;;;;;;;11.36;nan;99360.47;5012197;28;19925;-80
2023/04/24 02:19:34;;;;;;;;;;;;;;;11.36;nan;99360.47;5011883;28;20738;-80
2023/04/24 02:21:59;;;;;;;;;;;;;;;11.36;nan;99349.91;5026182;28;19948;-80
2023/04/24 02:24:25;;;;;;;;;;;;;;;11.38;nan;99354.00;5000894;28;19932;-82
2023/04/24 02:26:50;;;;;;;;;;;;;;;11.39;nan;99337.13;5032322;28;19917;-80
2023/04/24 02:29:15;;;;;;;;;;;;;;;11.42;nan;99351.81;5028575;28;20032;-81
2023/04/24 02:31:40;;;;;;;;;;;;;;;11.41;nan;99353.63;5030292;28;19921;-80
2023/04/24 02:34:06;;;;;;;;;;;;;;;11.37;nan;99349.72;5009243;28;20004;-80
2023/04/24 02:36:31;;;;;;;;;;;;;;;11.41;nan;99347.50;5008259;28;19941;-81
2023/04/24 02:38:56;;;;;;;;;;;;;;;11.40;nan;99345.88;5011301;28;19932;-80
2023/04/24 02:41:22;;;;;;;;;;;;;;;11.41;nan;99352.81;5020829;28;19983;-80
2023/04/24 02:43:47;;;;;;;;;;;;;;;11.40;nan;99351.19;5013880;28;19921;-81
2023/04/24 02:46:12;;;;;;;;;;;;;;;11.41;nan;99355.44;5010037;28;19917;-81
2023/04/24 02:48:37;;;;;;;;;;;;;;;11.38;nan;99358.47;5032773;28;20521;-80
2023/04/24 02:51:03;;;;;;;;;;;;;;;11.42;nan;99365.03;5018389;28;19931;-80
2023/04/24 02:53:29;;;;;;;;;;;;;;;11.37;nan;99376.19;5011259;28;20488;-81
2023/04/24 02:55:55;;;;;;;;;;;;;;;11.16;nan;99405.22;5037392;28;19929;-81
2023/04/24 02:58:20;;;;;;;;;;;;;;;10.93;nan;99429.94;5036360;28;19929;-80
2023/04/24 03:00:46;;;;;;;;;;;;;;;10.82;nan;99412.69;5030086;28;19987;-80
2023/04/24 03:03:11;;;;;;;;;;;;;;;10.59;nan;99417.22;5021397;28;19921;-79
2023/04/24 03:05:37;;;;;;;;;;;;;;;10.48;nan;99421.09;5009190;28;19991;-80
2023/04/24 03:08:02;;;;;;;;;;;;;;;10.34;nan;99430.59;5029921;28;19921;-80
2023/04/24 03:10:27;;;;;;;;;;;;;;;10.30;nan;99437.25;5028620;28;19932;-80
2023/04/24 03:12:52;;;;;;;;;;;;;;;10.26;nan;99422.72;5040599;28;19925;-80
2023/04/24 03:15:18;;;;;;;;;;;;;;;10.19;nan;99445.56;5033116;28;19924;-80
2023/04/24 03:17:43;;;;;;;;;;;;;;;10.12;nan;99426.13;5016995;28;19921;-79
2023/04/24 03:20:08;;;;;;;;;;;;;;;10.07;nan;99433.75;5018663;28;19917;-80
2023/04/24 03:22:34;;;;;;;;;;;;;;;10.05;nan;99438.41;5035320;28;20430;-80
2023/04/24 03:24:59;;;;;;;;;;;;;;;10.04;nan;99442.03;5039751;28;19957;-80
2023/04/24 03:27:24;;;;;;;;;;;;;;;;;;5017069;28;19925;-82
2023/04/24 03:29:54;;;;;;;;;;;;;;;;;;5012118;28;19932;-80
2023/04/24 03:32:19;;;;;;;;;;;;;;;;;;5024810;28;19921;-80
2023/04/24 03:34:47;;;;;;;;;;;;;;;;;;5032687;28;20000;-81
2023/04/24 03:37:12;;;;;;;;;;;;;;;;;;5006126;28;19968;-80
2023/04/24 03:39:37;;;;;;;;;;;;;;;;;;5008602;28;19929;-80
2023/04/24 03:42:02;;;;;;;;;;;;;;;;;;5015764;28;20382;-80
2023/04/24 03:44:27;;;;;;;;;;;;;;;;;;5037598;28;19921;-80
2023/04/24 03:46:53;;;;;;;;;;;;;;;;;;5034993;28;19957;-80
2023/04/24 03:49:18;;;;;;;;;;;;;;;;;;5037993;28;19964;-80
2023/04/24 03:51:43;;;;;;;;;;;;;;;;;;5036333;28;20016;-80
2023/04/24 03:54:08;;;;;;;;;;;;;;;;;;5027889;28;19928;-80
2023/04/24 03:56:34;;;;;;;;;;;;;;;;;;5027206;28;20381;-79
2023/04/24 03:58:59;;;;;;;;;;;;;;;;;;5015304;28;19921;-81
2023/04/24 04:01:24;;;;;;;;;;;;;;;;;;5014925;28;20062;-81
2023/04/24 04:03:49;;;;;;;;;;;;;;;;;;5032726;28;19922;-80
2023/04/24 04:06:14;;;;;;;;;;;;;;;;;;5023728;28;19928;-80
2023/04/24 04:08:39;;;;;;;;;;;;;;;;;;5019455;28;20016;-80
2023/04/24 04:11:05;;;;;;;;;;;;;;;;;;5030727;28;19980;-80
2023/04/24 04:13:30;;;;;;;;;;;;;;;;;;5030586;28;19925;-81
2023/04/24 04:15:55;;;;;;;;;;;;;;;;;;5037660;28;19921;-81
2023/04/24 04:18:21;;;;;;;;;;;;;;;;;;5031367;28;19921;-81
2023/04/24 04:20:46;;;;;;;;;;;;;;;;;;5031438;28;19929;-81
2023/04/24 04:23:12;;;;;;;;;;;;;;;;;;5031789;28;19921;-80
2023/04/24 04:25:37;;;;;;;;;;;;;;;;;;5025018;28;19925;-80
2023/04/24 04:28:02;;;;;;;;;;;;;;;;;;5035653;28;19928;-81
2023/04/24 04:30:29;;;;;;;;;;;;;;;;;;5031573;28;20385;-80
2023/04/24 04:32:55;;;;;;;;;;;;;;;;;;5035972;28;19931;-81
2023/04/24 04:35:20;;;;;;;;;;;;;;;;;;5018735;28;20015;-80
2023/04/24 04:37:45;;;;;;;;;;;;;;;;;;5029925;28;20971;-81
2023/04/24 04:40:11;;;;;;;;;;;;;;;;;;5030063;28;20004;-80
2023/04/24 04:42:40;;;;;;;;;;;;;;;;;;5019913;28;19921;-80
2023/04/24 04:45:05;;;;;;;;;;;;;;;;;;5021130;28;19967;-80
2023/04/24 04:47:32;;;;;;;;;;;;;;;;;;5033327;28;20380;-80
2023/04/24 04:49:57;;;;;;;;;;;;;;;;;;5016235;28;19933;-80
2023/04/24 04:52:24;;;;;;;;;;;;;;;;;;5006818;28;20305;-80
2023/04/24 04:54:50;;;;;;;;;;;;;;;;;;5008633;28;19921;-80
2023/04/24 04:57:15;;;;;;;;;;;;;;;;;;5007897;28;19921;-80
2023/04/24 04:59:40;;;;;;;;;;;;;;;;;;5032541;28;20461;-81
2023/04/24 05:02:06;;;;;;;;;;;;;;;;;;5027617;28;19932;-80
2023/04/24 05:04:31;;;;;;;;;;;;;;;;;;5006091;28;20009;-81
2023/04/24 05:06:56;;;;;;;;;;;;;;;;;;5022838;28;20005;-80
2023/04/24 05:09:21;;;;;;;;;;;;;;;;;;5011610;28;20385;-80
2023/04/24 05:11:46;;;;;;;;;;;;;;;;;;5016788;28;19920;-79
2023/04/24 05:14:12;;;;;;;;;;;;;;;;;;5008421;28;19928;-80
2023/04/24 05:16:37;;;;;;;;;;;;;;;;;;5031721;28;20289;-80
2023/04/24 05:19:02;;;;;;;;;;;;;;;;;;5030698;28;19921;-80
2023/04/24 05:21:27;;;;;;;;;;;;;;;;;;5027028;28;19922;-79
2023/04/24 05:23:53;;;;;;;;;;;;;;;;;;5023677;28;20300;-81
2023/04/24 05:26:18;;;;;;;;;;;;;;;;;;5008182;28;19921;-80
2023/04/24 05:28:43;;;;;;;;;;;;;;;9.87;nan;99562.78;5021252;28;20377;-80
2023/04/24 05:31:08;;;;;;;;;;;;;;;10.06;nan;99570.28;5008732;28;20016;-79
2023/04/24 05:33:33;;;;;;;;;;;;;;;10.27;nan;99572.31;5032024;28;19932;-80
2023/04/24 05:35:59;;;;;;;;;;;;;;;10.62;nan;99572.81;5019342;28;19924;-80
2023/04/24 05:38:24;;;;;;;;;;;;;;;10.84;nan;99577.31;5010912;28;19984;-80
2023/04/24 05:40:49;;;;;;;;;;;;;;;11.01;nan;99575.34;5011425;28;19956;-81
2023/04/24 05:43:14;;;;;;;;;;;;;;;11.19;nan;99582.13;5013743;28;19955;-80
2023/04/24 05:45:40;;;;;;;;;;;;;;;11.11;nan;99583.03;5040315;28;20012;-80
2023/04/24 05:48:05;;;;;;;;;;;;;;;10.92;nan;99575.59;5026702;28;19921;-81
2023/04/24 05:50:30;;;;;;;;;;;;;;;10.78;nan;99585.94;5020166;28;19929;-82
2023/04/24 05:52:57;;;;;;;;;;;;;;;10.87;nan;99588.50;5025468;28;20004;-81
2023/04/24 05:55:23;;;;;;;;;;;;;;;11.12;nan;99600.53;5029915;28;19929;-80
2023/04/24 05:57:48;;;;;;;;;;;;;;;11.40;nan;99611.38;5019379;28;19921;-80
2023/04/24 06:00:14;;;;;;;;;;;;;;;11.55;nan;99605.28;5029468;28;19925;-80
2023/04/24 06:02:39;;;;;;;;;;;;;;;11.45;nan;99603.72;5032741;28;19921;-80
2023/04/24 06:05:04;;;;;;;;;;;;;;;11.43;nan;99594.31;5017392;28;19925;-81
2023/04/24 06:07:30;;;;;;;;;;;;;;;11.68;nan;99603.66;5011864;28;19963;-81
2023/04/24 06:09:57;;;;;;;;;;;;;;;12.16;nan;99605.97;5042710;28;20016;-81
2023/04/24 06:12:22;;;;;;;;;;;;;;;12.36;nan;99603.56;5011607;28;20656;-82
2023/04/24 06:14:48;;;;;;;;;;;;;;;12.33;nan;99606.59;5008491;28;19928;-80
2023/04/24 06:17:13;;;;;;;;;;;;;;;12.20;nan;99611.72;5035502;28;19953;-82
2023/04/24 06:19:38;;;;;;;;;;;;;;;11.98;nan;99605.53;5015662;28;19952;-84
2023/04/24 06:22:04;;;;;;;;;;;;;;;11.78;nan;99610.53;5015538;28;20436;-83
2023/04/24 06:24:29;;;;;;;;;;;;;;;11.68;nan;99616.09;5032711;28;19925;-83
2023/04/24 06:26:54;;;;;;;;;;;;;;;11.53;nan;99609.94;5036572;28;19979;-81
2023/04/24 06:29:20;;;;;;;;;;;;;;;11.41;nan;99609.56;5014531;28;19925;-81
2023/04/24 06:31:45;;;;;;;;;;;;;;;11.29;nan;99618.94;5032087;28;19921;-84
2023/04/24 06:34:10;;;;;;;;;;;;;;;11.23;nan;99621.28;5029449;28;19917;-83
2023/04/24 06:36:35;;;;;;;;;;;;;;;11.19;nan;99614.72;5030436;28;19952;-83
2023/04/24 06:39:01;;;;;;;;;;;;;;;11.12;nan;99629.66;5012292;28;20211;-82
2023/04/24 06:41:26;;;;;;;;;;;;;;;11.08;nan;99627.53;5031417;28;20070;-82
2023/04/24 06:43:51;;;;;;;;;;;;;;;11.04;nan;99632.38;5036441;28;19929;-84
2023/04/24 06:46:17;;;;;;;;;;;;;;;10.94;nan;99637.03;5007880;28;19924;-80
2023/04/24 06:48:42;;;;;;;;;;;;;;;10.86;nan;99627.34;5035038;28;19928;-81
2023/04/24 06:51:09;;;;;;;;;;;;;;;10.78;nan;99628.25;5021586;28;19950;-81
2023/04/24 06:53:38;;;;;;;;;;;;;;;10.56;nan;99634.34;5015309;28;19945;-80
2023/04/24 06:56:03;;;;;;;;;;;;;;;;;;5013687;28;19925;-81
2023/04/24 06:58:29;;;;;;;;;;;;;;;;;;5032496;28;19924;-83
2023/04/24 07:00:56;;;;;;;;;;;;;;;;;;5019344;28;19925;-83
2023/04/24 07:03:21;;;;;;;;;;;;;;;;;;5023181;28;19955;-84
2023/04/24 07:05:47;;;;;;;;;;;;;;;;;;5033881;28;19921;-83
2023/04/24 07:08:13;;;;;;;;;;;;;;;;;;5007033;28;19929;-84
2023/04/24 07:10:38;;;;;;;;;;;;;;;;;;5036271;28;19933;-83
2023/04/24 07:13:03;;;;;;;;;;;;;;;;;;5016571;28;20008;-82
2023/04/24 07:15:29;;;;;;;;;;;;;;;;;;5020197;28;20426;-83
2023/04/24 07:17:54;;;;;;;;;;;;;;;10.28;nan;99657.72;5034274;28;19925;-81
2023/04/24 07:20:19;;;;;;;;;;;;;;;10.44;nan;99654.19;5008646;28;19971;-82
2023/04/24 07:22:44;;;;;;;;;;;;;;;10.59;nan;99660.41;5012588;28;19943;-82
2023/04/24 07:25:10;;;;;;;;;;;;;;;10.55;nan;99661.75;5040369;28;19921;-83
2023/04/24 07:27:36;;;;;;;;;;;;;;;10.52;nan;99677.97;5038785;28;19921;-83
2023/04/24 07:30:03;;;;;;;;;;;;;;;10.66;nan;99677.22;5008503;28;19926;-83
2023/04/24 07:32:29;;;;;;;;;;;;;;;11.36;nan;99673.63;5021954;28;19952;-82
2023/04/24 07:34:54;;;;;;;;;;;;;;;11.97;nan;99675.44;5016815;28;20285;-83
2023/04/24 07:37:20;;;;;;;;;;;;;;;12.60;nan;99665.22;5034317;28;19921;-83
2023/04/24 07:39:45;;;;;;;;;;;;;;;13.00;nan;99669.16;5030557;28;19936;-83
2023/04/24 07:42:10;;;;;;;;;;;;;;;12.79;nan;99659.31;5029433;28;19980;-82
2023/04/24 07:44:35;;;;;;;;;;;;;;;12.48;nan;99659.59;5025295;28;19936;-80
2023/04/24 07:47:01;;;;;;;;;;;;;;;12.15;nan;99657.31;5017420;28;19927;-80
2023/04/24 07:49:27;;;;;;;;;;;;;;;12.01;nan;99656.34;5016959;28;19929;-83
2023/04/24 07:51:53;;;;;;;;;;;;;;;11.96;nan;99653.38;5031967;28;19936;-81
2023/04/24 07:54:18;;;;;;;;;;;;;;;11.94;nan;99663.38;5018516;28;19920;-82
2023/04/24 07:56:43;;;;;;;;;;;;;;;12.04;nan;99665.75;5013310;28;19925;-81
2023/04/24 07:59:09;;;;;;;;;;;;;;;12.20;nan;99665.53;5038702;28;20016;-86
2023/04/24 08:01:35;;;;;;;;;;;;;;;12.29;nan;99671.56;5029209;28;19928;-85
2023/04/24 08:04:00;;;;;;;;;;;;;;;12.67;nan;99680.22;5028486;28;20004;-83
2023/04/24 08:06:29;;;;;;;;;;;;;;;13.04;nan;99678.38;5045730;28;20011;-84
2023/04/24 08:08:56;;;;;;;;;;;;;;;13.18;nan;99680.16;5031213;28;19960;-80
2023/04/24 08:11:21;;;;;;;;;;;;;;;13.30;nan;99683.16;5018597;28;19925;-82
2023/04/24 08:13:46;;;;;;;;;;;;;;;13.01;nan;99686.69;5018328;28;19973;-81
2023/04/24 08:16:11;;;;;;;;;;;;;;;12.67;nan;99687.34;5026769;28;19921;-84
2023/04/24 08:18:36;;;;;;;;;;;;;;;12.35;nan;99692.06;5027517;28;20124;-83
2023/04/24 08:21:02;;;;;;;;;;;;;;;12.19;nan;99697.53;5032371;28;19921;-84
2023/04/24 08:23:28;;;;;;;;;;;;;;;12.03;nan;99701.19;5039550;28;19922;-82
2023/04/24 08:25:53;;;;;;;;;;;;;;;12.03;nan;99701.19;5028664;28;19921;-82
2023/04/24 08:28:20;;;;;;;;;;;;;;;12.00;nan;99701.56;5025404;28;20221;-82
2023/04/24 08:30:45;;;;;;;;;;;;;;;12.02;nan;99708.31;5031636;28;19933;-85
2023/04/24 08:33:10;;;;;;;;;;;;;;;11.96;nan;99709.03;5018853;28;19982;-83
2023/04/24 08:35:36;;;;;;;;;;;;;;;11.67;nan;99718.53;5048010;28;19921;-83
2023/04/24 08:38:01;;;;;;;;;;;;;;;11.53;nan;99713.19;5021936;28;20389;-86
2023/04/24 08:40:29;;;;;;;;;;;;;;;11.44;nan;99704.50;5016209;28;19922;-84
2023/04/24 08:42:55;;;;;;;;;;;;;;;11.58;nan;99719.59;5027218;28;19925;-82
2023/04/24 08:45:20;;;;;;;;;;;;;;;11.61;nan;99724.56;5039458;28;19917;-84
2023/04/24 08:47:46;;;;;;;;;;;;;;;11.71;nan;99734.09;5033730;28;19931;-83
2023/04/24 08:50:12;;;;;;;;;;;;;;;11.82;nan;99738.94;5033451;28;19921;-82
2023/04/24 08:52:37;;;;;;;;;;;;;;;11.97;nan;99736.38;5019996;28;19928;-82
2023/04/24 08:55:03;;;;;;;;;;;;;;;12.43;nan;99734.38;5013835;28;19921;-82
2023/04/24 08:57:29;;;;;;;;;;;;;;;12.72;nan;99738.00;5012826;28;20412;-83
2023/04/24 08:59:54;;;;;;;;;;;;;;;12.73;nan;99740.50;5032455;28;19925;-82
2023/04/24 09:02:20;;;;;;;;;;;;;;;12.70;nan;99746.19;5026673;28;19964;-83
2023/04/24 09:04:47;;;;;;;;;;;;;;;12.52;nan;99748.38;5029640;28;19982;-83
2023/04/24 09:07:14;;;;;;;;;;;;;;;12.35;nan;99750.38;5012466;28;19921;-83
2023/04/24 09:09:40;;;;;;;;;;;;;;;12.26;nan;99748.81;5031047;28;20056;-83
2023/04/24 09:12:05;;;;;;;;;;;;;;;12.30;nan;99744.81;5011120;28;19991;-82
2023/04/24 09:14:31;;;;;;;;;;;;;;;12.41;nan;99749.63;5017002;28;19949;-83
2023/04/24 09:16:57;;;;;;;;;;;;;;;12.47;nan;99743.63;5015655;28;20316;-82
2023/04/24 09:19:23;;;;;;;;;;;;;;;12.36;nan;99748.56;5008967;28;19921;-82
2023/04/24 09:21:48;;;;;;;;;;;;;;;12.17;nan;99749.91;5017840;28;19982;-83
2023/04/24 09:24:17;;;;;;;;;;;;;;;12.02;nan;99758.66;4998584;28;19925;-82
2023/04/24 09:26:43;;;;;;;;;;;;;;;11.82;nan;99760.97;5007157;28;19928;-83
2023/04/24 09:29:13;;;;;;;;;;;;;;;11.79;nan;99757.84;5017996;28;20373;-83
2023/04/24 09:31:38;;;;;;;;;;;;;;;11.82;nan;99763.63;5007611;28;19921;-83
2023/04/24 09:34:07;;;;;;;;;;;;;;;11.82;nan;99768.91;5006007;28;19947;-83
2023/04/24 09:36:34;;;;;;;;;;;;;;;11.85;nan;99767.72;5011924;28;19921;-85
2023/04/24 09:39:00;;;;;;;;;;;;;;;11.98;nan;99772.44;5013136;28;20318;-82
2023/04/24 09:41:29;;;;;;;;;;;;;;;11.92;nan;99781.94;5008790;28;19921;-80
2023/04/24 09:43:55;;;;;;;;;;;;;;;12.02;nan;99785.16;5015061;28;19924;-79
2023/04/24 09:46:32;;;;;;;;;;;;;;;11.95;nan;99781.56;5019380;28;19921;-81
2023/04/24 09:49:07;;;;;;;;;;;;;;;11.96;nan;99785.03;5022931;28;19929;-79
2023/04/24 09:51:36;;;;;;;;;;;;;;;11.94;nan;99787.88;5019736;28;19975;-80
2023/04/24 09:54:02;;;;;;;;;;;;;;;12.05;nan;99791.91;5013319;28;19921;-80
2023/04/24 09:56:28;;;;;;;;;;;;;;;12.00;nan;99787.16;5012069;28;19970;-81
2023/04/24 09:58:53;;;;;;;;;;;;;;;12.02;nan;99800.25;5023271;28;19925;-82
2023/04/24 10:01:33;;;;;;;;;;;;;;;12.05;nan;99794.56;5033792;28;19925;-80
2023/04/24 10:03:58;;;;;;;;;;;;;;;11.95;nan;99792.19;5034924;28;20019;-81
2023/04/24 10:06:30;;;;;;;;;;;;;;;11.69;nan;99795.97;5011337;28;20053;-79
2023/04/24 10:08:58;;;;;;;;;;;;;;;11.64;nan;99806.28;5030677;28;19982;-80
2023/04/24 10:11:27;;;;;;;;;;;;;;;11.52;nan;99806.88;5017657;28;20480;-81
2023/04/24 10:13:53;;;;;;;;;;;;;;;11.51;nan;99813.16;5011472;28;19967;-80
2023/04/24 10:16:19;;;;;;;;;;;;;;;11.43;nan;99811.38;5010299;28;20000;-81
2023/04/24 10:18:45;;;;;;;;;;;;;;;11.56;nan;99813.44;5023921;28;19943;-80
2023/04/24 10:21:10;;;;;;;;;;;;;;;11.60;nan;99815.56;5022681;28;19924;-80
2023/04/24 10:23:36;;;;;;;;;;;;;;;11.61;nan;99819.88;5032360;28;19928;-80
2023/04/24 10:26:01;;;;;;;;;;;;;;;11.84;nan;99817.22;5019124;28;19975;-81
2023/04/24 10:28:27;;;;;;;;;;;;;;;11.89;nan;99822.03;5003040;28;20082;-82
2023/04/24 10:30:55;;;;;;;;;;;;;;;12.00;nan;99818.94;5015539;28;19932;-81
2023/04/24 10:33:22;;;;;;;;;;;;;;;11.97;nan;99819.31;5018718;28;19936;-80
2023/04/24 10:35:50;;;;;;;;;;;;;;;12.05;nan;99821.06;5029186;28;19921;-80
2023/04/24 10:38:18;;;;;;;;;;;;;;;12.28;nan;99818.41;5013543;28;19953;-81
2023/04/24 10:40:45;;;;;;;;;;;;;;;13.08;nan;99822.16;5019480;28;22512;-80
2023/04/24 10:43:11;;;;;;;;;;;;;;;14.26;nan;99818.25;5015874;28;20032;-81
2023/04/24 10:45:37;;;;;;;;;;;;;;;15.53;nan;99816.25;5014596;28;19936;-81
2023/04/24 10:48:10;;;;;;;;;;;;;;;16.11;nan;99829.88;5011903;28;20292;-81
2023/04/24 10:50:43;;;;;;;;;;;;;;;15.80;nan;99825.13;5011405;28;19925;-81
2023/04/24 10:53:16;;;;;;;;;;;;;;;15.15;nan;99830.88;5016766;28;19956;-81
2023/04/24 10:55:44;;;;;;;;;;;;;;;14.56;nan;99832.22;5021327;28;19928;-81
2023/04/24 10:58:09;;;;;;;;;;;;;;;13.96;nan;99844.97;5012835;28;19960;-80
2023/04/24 11:00:39;;;;;;;;;;;;;;;13.56;nan;99843.75;5011415;28;19961;-79
2023/04/24 11:03:24;;;;;;;;;;;;;;;13.16;nan;99846.75;5017820;28;19924;-80
2023/04/24 11:05:56;;;;;;;;;;;;;;;12.91;nan;99840.91;5021447;28;20016;-79
2023/04/24 11:08:23;;;;;;;;;;;;;;;12.88;nan;99851.09;5030043;28;19935;-79
2023/04/24 11:11:09;;;;;;;;;;;;;;;12.74;nan;99856.19;5029314;28;19925;-79
2023/04/24 11:13:53;;;;;;;;;;;;;;;12.67;nan;99849.16;5026452;28;19989;-80
2023/04/24 11:16:34;;;;;;;;;;;;;;;12.80;nan;99854.66;5038232;28;20377;-80
2023/04/24 11:19:06;;;;;;;;;;;;;;;12.50;nan;99844.00;5020343;28;19952;-80
2023/04/24 11:21:38;;;;;;;;;;;;;;;12.41;nan;99852.22;5023617;28;19921;-79
2023/04/24 11:24:22;;;;;;;;;;;;;;;12.41;nan;99844.28;5013195;28;19995;-81
2023/04/24 11:27:04;;;;;;;;;;;;;;;12.45;nan;99843.75;5029439;28;20003;-81
2023/04/24 11:29:44;;;;;;;;;;;;;;;12.42;nan;99848.56;5012191;28;20049;-81
2023/04/24 11:32:23;;;;;;;;;;;;;;;12.32;nan;99852.31;5028345;28;19956;-80
2023/04/24 11:34:51;;;;;;;;;;;;;;;12.21;nan;99855.38;5016668;28;20461;-80
2023/04/24 11:37:17;;;;;;;;;;;;;;;12.16;nan;99855.09;5005553;28;20454;-80
2023/04/24 11:39:42;;;;;;;;;;;;;;;12.12;nan;99853.81;5029294;28;19925;-80
2023/04/24 11:42:14;;;;;;;;;;;;;;;12.09;nan;99854.19;5029849;28;20317;-81
2023/04/24 11:44:39;;;;;;;;;;;;;;;12.27;nan;99862.59;5033757;28;19921;-81
2023/04/24 11:47:05;;;;;;;;;;;;;;;12.53;nan;99856.91;5017168;28;19921;-80
2023/04/24 11:49:30;;;;;;;;;;;;;;;12.75;nan;99865.81;5021631;28;19929;-81
2023/04/24 11:51:56;;;;;;;;;;;;;;;12.70;nan;99862.03;5019866;28;19972;-81
2023/04/24 11:54:21;;;;;;;;;;;;;;;12.73;nan;99869.66;5019065;28;19921;-81
2023/04/24 11:56:49;;;;;;;;;;;;;;;12.85;nan;99868.19;5018289;28;19925;-83
2023/04/24 11:59:14;;;;;;;;;;;;;;;13.05;nan;99865.81;5032724;28;19932;-81
2023/04/24 12:01:45;;;;;;;;;;;;;;;13.22;nan;99862.94;5027298;28;19922;-81
2023/04/24 12:04:11;;;;;;;;;;;;;;;13.24;nan;99863.59;4998286;28;20527;-82
2023/04/24 12:06:36;;;;;;;;;;;;;;;13.11;nan;99865.09;5013301;28;19932;-82
2023/04/24 12:09:02;;;;;;;;;;;;;;;13.05;nan;99870.28;5014137;28;19928;-82
2023/04/24 12:11:30;;;;;;;;;;;;;;;13.15;nan;99863.69;5028382;28;19956;-82
2023/04/24 12:13:55;;;;;;;;;;;;;;;13.48;nan;99867.78;5027370;28;19921;-82
2023/04/24 12:16:22;;;;;;;;;;;;;;;13.81;nan;99866.31;5010136;28;19935;-82
2023/04/24 12:18:48;;;;;;;;;;;;;;;14.35;nan;99854.34;5017423;28;19928;-80
2023/04/24 12:21:17;;;;;;;;;;;;;;;14.76;nan;99853.63;5035447;28;19925;-81
2023/04/24 12:23:43;;;;;;;;;;;;;;;14.79;nan;99855.06;5011527;28;19929;-80
2023/04/24 12:26:08;;;;;;;;;;;;;;;15.13;nan;99853.38;5021147;28;19922;-80
2023/04/24 12:28:37;;;;;;;;;;;;;;;15.16;nan;99847.66;5035501;28;19924;-82
2023/04/24 12:31:02;;;;;;;;;;;;;;;15.05;nan;99841.88;5013413;28;19925;-80
2023/04/24 12:33:27;;;;;;;;;;;;;;;14.88;nan;99851.22;5007995;28;19984;-81
2023/04/24 12:35:55;;;;;;;;;;;;;;;14.51;nan;99857.72;5018740;28;19931;-80
2023/04/24 12:38:24;;;;;;;;;;;;;;;14.43;nan;99866.66;5031570;28;19925;-81
2023/04/24 12:41:01;;;;;;;;;;;;;;;14.16;nan;99868.28;5016420;28;20429;-81
2023/04/24 12:43:28;;;;;;;;;;;;;;;13.92;nan;99865.00;5009201;28;20658;-81
2023/04/24 12:45:56;;;;;;;;;;;;;;;13.66;nan;99868.22;5011780;28;19924;-85
2023/04/24 12:48:22;;;;;;;;;;;;;;;13.29;nan;99877.97;4992313;28;20718;-81
2023/04/24 12:51:00;;;;;;;;;;;;;;;13.10;nan;99870.56;5011174;28;19932;-79
2023/04/24 12:53:26;;;;;;;;;;;;;;;12.90;nan;99873.78;5015296;28;19944;-79
2023/04/24 12:55:52;;;;;;;;;;;;;;;12.83;nan;99875.50;5025072;28;19976;-81
2023/04/24 12:58:20;;;;;;;;;;;;;;;12.84;nan;99884.28;5025806;28;19928;-78
2023/04/24 13:00:49;;;;;;;;;;;;;;;12.92;nan;99881.56;5007975;28;20024;-78
2023/04/24 13:03:15;;;;;;;;;;;;;;;12.89;nan;99874.75;5040052;28;19948;-78
2023/04/24 13:05:40;;;;;;;;;;;;;;;12.97;nan;99871.22;5017126;28;20359;-78
2023/04/24 13:08:05;;;;;;;;;;;;;;;13.01;nan;99866.34;5014399;28;19921;-78
2023/04/24 13:10:34;;;;;;;;;;;;;;;13.10;nan;99873.22;5016873;28;20433;-78
2023/04/24 13:13:03;;;;;;;;;;;;;;;13.02;nan;99870.66;5032415;28;20012;-80
2023/04/24 13:15:48;;;;;;;;;;;;;;;12.95;nan;99871.41;5014696;28;19974;-78
2023/04/24 13:18:13;;;;;;;;;;;;;;;12.74;nan;99866.81;5011678;28;20114;-79
2023/04/24 13:20:40;;;;;;;;;;;;;;;12.82;nan;99876.50;5015439;28;20301;-79
2023/04/24 13:23:07;;;;;;;;;;;;;;;12.81;nan;99885.47;5021343;28;19967;-87
2023/04/24 13:25:36;;;;;;;;;;;;;;;12.79;nan;99881.38;5023920;28;19932;-85
2023/04/24 13:28:01;;;;;;;;;;;;;;;12.78;nan;99877.06;5007339;28;19925;-80
2023/04/24 13:30:26;;;;;;;;;;;;;;;12.92;nan;99879.72;5025967;28;19909;-78
2023/04/24 13:32:52;;;;;;;;;;;;;;;13.14;nan;99874.50;5081274;22;19933;-82
2023/04/24 13:35:18;;;;;;;;;;;;;;;13.44;nan;99880.59;5042869;28;19921;-81